Current Weather

Fairford

Fairford, United Kingdom (EGVA)

Report from: Monday, September 26, 2022 4:11 AM BST
Current time: Monday, September 26, 2022 4:57 AM BST

Nearby weather
Weather history
Weather forecast

Temperature13.0°C (55.4°F)
Dew point13.0°C (55.4°F)
Winds 15 kts (7.7 m/s, 17.3 mph) West (260°)
Wind gusts 22 kts (11.3 m/s, 25.3 mph)
Visibility6.2 mi. (10 km)
Clouds Ceiling: Broken clouds 800 ft. (244 m)
Overcast 2,500 ft. (762 m)
Altimeter29.62 in.Hg (1003 mB)
Precip. events Rain ended 4:11 AM
Relative humidity100 %
Density altitude318 ft. (97 m)
Sea-level pressure100.3 kPa (1003 mB, 29.63 in.Hg)
Remarks Fully automated report
System requires maintenance
Special weather observation
Automated weather observing station with precipitation discriminator
Pressure falling rapidly
Flight conditions Instrument Meteorological Conditions
Raw dataSPXX61 KWBC 260315 SPECI EGVA 260311Z AUTO 26015G22KT 9999 BKN008 OVC025 13/13 A2962 RMK AO2 RAE11 PRESFR SLP033 $
An error has occurred. This application may no longer respond until reloaded. Reload 🗙